createdAt,value
2019-02-09T00:00:04.687Z,97730.72
2019-02-09T00:02:34.956Z,97727.80
2019-02-09T00:05:03.672Z,97732.11
2019-02-09T00:07:32.552Z,97719.80
2019-02-09T00:10:01.203Z,97719.58
2019-02-09T00:12:30.108Z,97708.38
2019-02-09T00:14:58.731Z,97697.09
2019-02-09T00:17:27.393Z,97696.09
2019-02-09T00:19:56.019Z,97694.55
2019-02-09T00:22:24.731Z,97691.84
2019-02-09T00:24:53.383Z,97681.69
2019-02-09T00:27:22.378Z,97679.30
2019-02-09T00:29:51.033Z,97670.20
2019-02-09T00:32:19.690Z,97672.60
2019-02-09T00:34:48.327Z,97672.08
2019-02-09T00:37:16.959Z,97669.17
2019-02-09T00:39:45.686Z,97665.73
2019-02-09T00:42:14.330Z,97668.16
2019-02-09T00:44:42.963Z,97671.63
2019-02-09T00:47:11.942Z,97671.38
2019-02-09T00:49:41.291Z,97659.39
2019-02-09T00:52:10.200Z,97662.36
2019-02-09T00:54:39.107Z,97651.88
2019-02-09T00:57:07.812Z,97656.18
2019-02-09T00:59:36.440Z,97647.12
2019-02-09T01:02:05.154Z,97648.23
2019-02-09T01:04:33.802Z,97644.76
2019-02-09T01:07:02.432Z,97642.91
2019-02-09T01:09:31.084Z,97634.61
2019-02-09T01:11:59.719Z,97626.07
2019-02-09T01:14:28.363Z,97627.17
2019-02-09T01:16:57.030Z,97635.22
2019-02-09T01:19:25.739Z,97635.20
2019-02-09T01:21:54.712Z,97646.42
2019-02-09T01:24:23.367Z,97669.89
2019-02-09T01:26:52.011Z,97689.92
2019-02-09T01:29:20.663Z,97711.78
2019-02-09T01:31:49.315Z,97718.98
2019-02-09T01:34:18.017Z,97727.50
2019-02-09T01:36:46.642Z,97712.80
2019-02-09T01:39:15.590Z,97707.77
2019-02-09T01:41:44.214Z,97705.36
2019-02-09T01:44:13.206Z,97694.41
2019-02-09T01:46:42.238Z,97697.15
2019-02-09T01:49:10.896Z,97693.45
2019-02-09T01:51:39.528Z,97678.72
2019-02-09T01:54:08.178Z,97679.80
2019-02-09T01:56:36.798Z,97673.04
2019-02-09T01:59:05.440Z,97690.20
2019-02-09T02:01:34.099Z,97671.91
2019-02-09T02:04:02.814Z,97685.30
2019-02-09T02:06:31.444Z,97679.70
2019-02-09T02:09:00.088Z,97675.69
2019-02-09T02:11:28.717Z,97672.45
2019-02-09T02:13:57.347Z,97664.47
2019-02-09T02:16:25.991Z,97657.02
2019-02-09T02:18:54.923Z,97671.22
2019-02-09T02:21:23.718Z,97661.03
2019-02-09T02:23:52.367Z,97658.36
2019-02-09T02:26:21.267Z,97658.41
2019-02-09T02:28:50.260Z,97661.33
2019-02-09T02:31:18.927Z,97664.80
2019-02-09T02:33:47.619Z,97669.58
2019-02-09T02:36:16.250Z,97664.00
2019-02-09T02:38:45.867Z,97665.62
2019-02-09T02:41:14.523Z,97667.34
2019-02-09T02:43:43.167Z,97659.59
2019-02-09T02:46:11.827Z,97659.91
2019-02-09T02:48:40.462Z,97656.20
2019-02-09T02:51:09.106Z,97649.59
2019-02-09T02:53:37.777Z,97647.73
2019-02-09T02:56:06.400Z,97648.23
2019-02-09T02:58:35.050Z,97649.33
2019-02-09T03:01:03.786Z,97652.25
2019-02-09T03:03:32.748Z,97658.66
2019-02-09T03:06:01.385Z,97652.85
2019-02-09T03:08:30.116Z,97646.19
2019-02-09T03:10:58.753Z,97648.56
2019-02-09T03:13:27.413Z,97641.33
2019-02-09T03:15:56.061Z,97639.12
2019-02-09T03:18:24.862Z,97635.89
2019-02-09T03:20:53.592Z,97638.34
2019-02-09T03:23:22.245Z,97643.96
2019-02-09T03:25:52.055Z,97642.95
2019-02-09T03:28:21.076Z,97645.31
2019-02-09T03:30:49.814Z,97641.59
2019-02-09T03:33:19.434Z,97642.66
2019-02-09T03:35:48.060Z,97631.17
2019-02-09T03:38:16.726Z,97629.57
2019-02-09T03:40:46.447Z,97625.78
2019-02-09T03:43:15.100Z,97615.38
2019-02-09T03:45:43.744Z,97616.76
2019-02-09T03:48:12.455Z,97604.19
2019-02-09T03:50:41.419Z,97603.15
2019-02-09T03:53:10.158Z,97610.63
2019-02-09T03:55:38.850Z,97614.34
2019-02-09T03:58:07.488Z,97608.42
2019-02-09T04:00:37.906Z,97607.10
2019-02-09T04:03:06.614Z,97608.44
2019-02-09T04:05:35.328Z,97608.36
2019-02-09T04:08:04.392Z,97605.14
2019-02-09T04:10:33.070Z,97600.29
2019-02-09T04:13:01.749Z,97599.96
2019-02-09T04:15:30.406Z,97598.56
2019-02-09T04:17:59.048Z,97605.25
2019-02-09T04:20:28.187Z,97595.91
2019-02-09T04:22:56.844Z,97595.93
2019-02-09T04:25:25.545Z,97583.87
2019-02-09T04:27:55.069Z,97578.21
2019-02-09T04:30:24.688Z,97574.74
2019-02-09T04:32:53.549Z,97562.77
2019-02-09T04:35:22.217Z,97563.55
2019-02-09T04:37:50.950Z,97569.72
2019-02-09T04:40:20.635Z,97550.73
2019-02-09T04:42:49.384Z,97554.44
2019-02-09T04:45:18.143Z,97555.16
2019-02-09T04:47:46.867Z,97561.57
2019-02-09T04:50:16.085Z,97553.23
2019-02-09T04:52:45.774Z,97553.47
2019-02-09T04:55:15.717Z,97542.45
2019-02-09T04:57:44.423Z,97542.12
2019-02-09T05:00:13.950Z,97536.68
2019-02-09T05:02:42.668Z,97532.89
2019-02-09T05:05:11.313Z,97539.05
2019-02-09T05:07:39.958Z,97543.80
2019-02-09T05:10:09.182Z,97540.55
2019-02-09T05:12:38.114Z,97550.41
2019-02-09T05:15:07.216Z,97546.10
2019-02-09T05:17:35.862Z,97561.28
2019-02-09T05:20:05.376Z,97571.42
2019-02-09T05:22:34.015Z,97582.08
2019-02-09T05:25:02.732Z,97581.70
2019-02-09T05:27:31.359Z,97562.72
2019-02-09T05:30:00.108Z,97577.68
2019-02-09T05:32:28.903Z,97591.30
2019-02-09T05:34:58.612Z,97560.17
2019-02-09T05:37:27.266Z,97524.58
2019-02-09T05:39:55.899Z,97502.59
2019-02-09T05:42:24.539Z,97535.38
2019-02-09T05:44:53.547Z,97529.28
2019-02-09T05:47:22.252Z,97533.23
2019-02-09T05:49:50.891Z,97542.55
2019-02-09T05:52:19.532Z,97543.84
2019-02-09T05:54:48.168Z,97565.00
2019-02-09T05:57:16.811Z,97572.20
2019-02-09T05:59:45.487Z,97574.27
2019-02-09T06:02:14.111Z,97578.77
2019-02-09T06:04:42.746Z,97572.24
2019-02-09T06:07:11.390Z,97584.34
2019-02-09T06:09:40.029Z,97603.69
2019-02-09T06:12:08.970Z,97603.91
2019-02-09T06:14:37.615Z,97641.81
2019-02-09T06:17:06.326Z,97652.33
2019-02-09T06:19:35.642Z,97677.55
2019-02-09T06:22:04.371Z,97681.56
2019-02-09T06:24:32.996Z,97661.67
2019-02-09T06:27:01.628Z,97667.83
2019-02-09T06:29:30.295Z,97682.26
2019-02-09T06:31:58.934Z,97697.64
2019-02-09T06:34:27.640Z,97711.53
2019-02-09T06:36:56.378Z,97713.59
2019-02-09T06:39:25.012Z,97714.07
2019-02-09T06:41:53.673Z,97710.48
2019-02-09T06:44:22.323Z,97710.95
2019-02-09T06:46:50.985Z,97696.59
2019-02-09T06:49:19.679Z,97696.48
2019-02-09T06:51:48.323Z,97692.16
2019-02-09T06:54:18.979Z,97684.16
2019-02-09T06:56:47.739Z,97673.09
2019-02-09T06:59:16.372Z,97683.83
2019-02-09T07:01:48.868Z,97687.48
2019-02-09T07:04:15.370Z,97683.28
2019-02-09T07:06:44.007Z,97684.30
2019-02-09T07:09:12.710Z,97686.02
2019-02-09T07:11:41.716Z,97695.46
2019-02-09T07:14:10.343Z,97698.69
2019-02-09T07:16:39.267Z,97705.41
2019-02-09T07:19:07.934Z,97700.88
2019-02-09T07:21:36.566Z,97685.52
2019-02-09T07:24:05.283Z,97682.83
2019-02-09T07:26:33.932Z,97685.81
2019-02-09T07:29:02.572Z,97692.48
2019-02-09T07:31:31.214Z,97679.25
2019-02-09T07:34:00.192Z,97691.09
2019-02-09T07:36:28.825Z,97693.48
2019-02-09T07:38:58.427Z,97706.03
2019-02-09T07:41:27.163Z,97695.88
2019-02-09T07:43:55.800Z,97701.54
2019-02-09T07:46:24.441Z,97707.45
2019-02-09T07:48:53.084Z,97711.91
2019-02-09T07:51:21.719Z,97716.73
2019-02-09T07:53:50.355Z,97717.15
2019-02-09T07:56:19.007Z,97718.26
2019-02-09T07:58:47.643Z,97722.29
2019-02-09T08:01:17.895Z,97720.08
2019-02-09T08:03:46.591Z,97711.38
2019-02-09T08:06:15.230Z,97711.02
2019-02-09T08:08:43.882Z,97708.56
2019-02-09T08:11:12.601Z,97712.80
2019-02-09T08:13:41.237Z,97709.30
2019-02-09T08:16:10.254Z,97708.04
2019-02-09T08:18:39.522Z,97705.14
2019-02-09T08:21:08.190Z,97711.95
2019-02-09T08:23:36.829Z,97718.34
2019-02-09T08:26:05.496Z,97717.09
2019-02-09T08:28:34.293Z,97717.09
2019-02-09T08:31:02.932Z,97706.59
2019-02-09T08:33:31.588Z,97702.22
2019-02-09T08:36:00.296Z,97704.91
2019-02-09T08:38:28.926Z,97702.95
2019-02-09T08:40:57.578Z,97704.23
2019-02-09T08:43:26.202Z,97706.87
2019-02-09T08:45:54.851Z,97710.77
2019-02-09T08:48:23.499Z,97711.80
2019-02-09T08:50:54.280Z,97710.23
2019-02-09T08:53:22.941Z,97705.48
2019-02-09T08:55:51.857Z,97709.17
2019-02-09T08:58:20.592Z,97712.61
2019-02-09T09:00:49.330Z,97715.80
2019-02-09T09:03:18.342Z,97711.19
2019-02-09T09:05:47.155Z,97715.13
2019-02-09T09:08:15.803Z,97710.02
2019-02-09T09:10:44.455Z,97714.59
2019-02-09T09:13:13.098Z,97719.29
2019-02-09T09:15:43.197Z,97722.09
2019-02-09T09:18:11.816Z,97725.83
2019-02-09T09:20:41.904Z,97722.36
2019-02-09T09:23:10.559Z,97725.38
2019-02-09T09:25:39.182Z,97718.33
2019-02-09T09:28:07.894Z,97718.83
2019-02-09T09:30:36.626Z,97720.80
2019-02-09T09:33:05.255Z,97724.69
2019-02-09T09:35:33.908Z,97723.59
2019-02-09T09:38:02.554Z,97711.94
2019-02-09T09:40:32.280Z,97726.67
2019-02-09T09:43:02.212Z,97719.80
2019-02-09T09:45:31.698Z,97724.77
2019-02-09T09:48:00.358Z,97723.02
2019-02-09T09:50:29.179Z,97720.81
2019-02-09T09:52:57.896Z,97730.61
2019-02-09T09:55:27.597Z,97734.23
2019-02-09T09:57:57.397Z,97730.94
2019-02-09T10:00:26.181Z,97734.03
2019-02-09T10:02:54.879Z,97729.65
2019-02-09T10:05:23.604Z,97740.42
2019-02-09T10:07:52.579Z,97737.03
2019-02-09T10:10:21.651Z,97734.20
2019-02-09T10:12:50.303Z,97734.11
2019-02-09T10:15:19.833Z,97741.31
2019-02-09T10:17:48.738Z,97740.70
2019-02-09T10:20:18.327Z,97747.70
2019-02-09T10:22:47.336Z,97741.92
2019-02-09T10:25:16.062Z,97752.52
2019-02-09T10:27:44.785Z,97744.06
2019-02-09T10:30:14.564Z,97744.78
2019-02-09T10:32:44.593Z,97739.80
2019-02-09T10:35:13.918Z,97739.09
2019-02-09T10:37:42.639Z,97741.44
2019-02-09T10:40:15.802Z,97725.88
2019-02-09T10:42:44.528Z,97725.28
2019-02-09T10:45:14.916Z,97724.60
2019-02-09T10:47:43.556Z,97720.63
2019-02-09T10:50:14.213Z,97718.95
2019-02-09T10:52:42.860Z,97714.63
2019-02-09T10:55:11.653Z,97707.63
2019-02-09T10:57:40.303Z,97709.95
2019-02-09T11:00:11.407Z,97708.72
2019-02-09T11:02:40.133Z,97722.57
2019-02-09T11:05:09.307Z,97714.00
2019-02-09T11:07:38.025Z,97716.00
2019-02-09T11:10:09.648Z,97716.72
2019-02-09T11:12:38.827Z,97715.13
2019-02-09T11:15:08.623Z,97708.78
2019-02-09T11:17:37.560Z,97700.13
2019-02-09T11:20:07.287Z,97704.70
2019-02-09T11:22:35.919Z,97696.52
2019-02-09T11:25:05.471Z,97703.82
2019-02-09T11:27:34.123Z,97696.66
2019-02-09T11:30:02.831Z,97689.36
2019-02-09T11:32:31.547Z,97688.30
2019-02-09T11:35:01.267Z,97689.92
2019-02-09T11:37:30.286Z,97691.06
2019-02-09T11:39:58.918Z,97684.89
2019-02-09T11:42:28.208Z,97694.04
2019-02-09T11:44:56.848Z,97691.02
2019-02-09T11:47:25.482Z,97690.86
2019-02-09T11:49:54.258Z,97700.26
2019-02-09T11:52:22.892Z,97712.77
2019-02-09T11:54:51.800Z,97708.94
2019-02-09T11:57:20.525Z,97705.58
2019-02-09T11:59:49.166Z,97716.15
2019-02-09T12:02:17.804Z,97708.42
2019-02-09T12:04:46.696Z,97717.17
2019-02-09T12:07:15.354Z,97708.73
2019-02-09T12:09:44.707Z,97705.00
2019-02-09T12:12:13.379Z,97707.23
2019-02-09T12:14:42.017Z,97716.23
2019-02-09T12:17:10.651Z,97706.02
2019-02-09T12:19:39.656Z,97717.23
2019-02-09T12:22:08.275Z,97719.39
2019-02-09T12:24:36.983Z,97708.92
2019-02-09T12:27:05.683Z,97698.48
2019-02-09T12:29:34.323Z,97692.11
2019-02-09T12:32:02.959Z,97684.22
2019-02-09T12:34:31.612Z,97670.39
2019-02-09T12:37:00.261Z,97668.64
2019-02-09T12:39:28.910Z,97673.97
2019-02-09T12:41:57.686Z,97676.37
2019-02-09T12:44:26.353Z,97674.03
2019-02-09T12:46:55.010Z,97653.63
2019-02-09T12:49:23.672Z,97664.11
2019-02-09T12:51:52.313Z,97660.34
2019-02-09T12:54:22.254Z,97675.36
2019-02-09T12:56:51.191Z,97669.66
2019-02-09T12:59:19.842Z,97682.98
2019-02-09T13:01:48.766Z,97681.52
2019-02-09T13:04:17.790Z,97691.20
2019-02-09T13:06:46.521Z,97685.00
2019-02-09T13:09:15.269Z,97685.80
2019-02-09T13:11:43.952Z,97684.06
2019-02-09T13:14:12.754Z,97688.51
2019-02-09T13:16:41.481Z,97681.13
2019-02-09T13:19:10.133Z,97677.72
2019-02-09T13:21:38.789Z,97691.78
2019-02-09T13:24:07.453Z,97697.61
2019-02-09T13:26:36.135Z,97703.31
2019-02-09T13:29:04.864Z,97704.14
2019-02-09T13:31:33.519Z,97705.49
2019-02-09T13:34:02.205Z,97716.52
2019-02-09T13:36:31.233Z,97716.02
2019-02-09T13:38:59.902Z,97732.62
2019-02-09T13:41:28.645Z,97725.52
2019-02-09T13:43:57.303Z,97725.36
2019-02-09T13:46:25.943Z,97726.12
2019-02-09T13:48:54.605Z,97728.17
2019-02-09T13:51:23.258Z,97741.38
2019-02-09T13:53:51.950Z,97731.65
2019-02-09T13:56:20.604Z,97727.02
2019-02-09T13:58:49.464Z,97727.25
2019-02-09T14:01:19.186Z,97724.88
2019-02-09T14:03:47.988Z,97719.54
2019-02-09T14:06:17.769Z,97725.75
2019-02-09T14:08:46.508Z,97727.91
2019-02-09T14:11:15.486Z,97727.98
2019-02-09T14:13:44.205Z,97730.09
2019-02-09T14:16:12.858Z,97727.97
2019-02-09T14:18:41.551Z,97722.50
2019-02-09T14:21:10.201Z,97725.36
2019-02-09T14:23:38.851Z,97716.53
2019-02-09T14:26:07.833Z,97721.80
2019-02-09T14:28:36.486Z,97730.26
2019-02-09T14:31:05.292Z,97732.38
2019-02-09T14:33:33.961Z,97731.55
2019-02-09T14:36:02.606Z,97735.83
2019-02-09T14:38:31.273Z,97735.49
2019-02-09T14:41:00.012Z,97741.47
2019-02-09T14:43:28.652Z,97735.58
2019-02-09T14:45:57.387Z,97733.88
2019-02-09T14:48:26.044Z,97735.70
2019-02-09T14:50:54.709Z,97729.67
2019-02-09T14:53:23.775Z,97737.65
2019-02-09T14:55:52.477Z,97745.11
2019-02-09T14:58:21.112Z,97745.45
2019-02-09T15:00:50.544Z,97736.41
2019-02-09T15:03:25.958Z,97729.16
2019-02-09T15:05:49.597Z,97727.80
2019-02-09T15:08:18.460Z,97729.91
2019-02-09T15:10:47.098Z,97728.14
2019-02-09T15:13:15.923Z,97735.61
2019-02-09T15:15:49.556Z,97740.89
2019-02-09T15:18:18.364Z,97742.50
2019-02-09T15:20:49.148Z,97729.16
2019-02-09T15:23:17.831Z,97736.38
2019-02-09T15:25:46.547Z,97737.87
2019-02-09T15:28:15.317Z,97739.75
2019-02-09T15:30:44.043Z,97739.25
2019-02-09T15:33:12.687Z,97746.50
2019-02-09T15:35:41.365Z,97752.88
2019-02-09T15:38:10.021Z,97744.36
2019-02-09T15:40:38.655Z,97744.50
2019-02-09T15:43:07.598Z,97746.07
2019-02-09T15:45:36.273Z,97741.41
2019-02-09T15:48:05.295Z,97746.56
2019-02-09T15:50:33.980Z,97743.88
2019-02-09T15:53:03.713Z,97745.77
2019-02-09T15:55:32.435Z,97749.12
2019-02-09T15:58:01.156Z,97747.47
2019-02-09T16:00:29.883Z,97755.55
2019-02-09T16:02:58.615Z,97751.35
2019-02-09T16:05:27.644Z,97759.72
2019-02-09T16:07:56.316Z,97756.87
2019-02-09T16:10:25.071Z,97753.17
2019-02-09T16:12:55.029Z,97759.25
2019-02-09T16:15:24.948Z,97761.64
2019-02-09T16:17:53.692Z,97764.52
2019-02-09T16:20:22.711Z,97774.52
2019-02-09T16:22:51.433Z,97768.86
2019-02-09T16:25:20.137Z,97776.37
2019-02-09T16:27:48.864Z,97785.00
2019-02-09T16:30:18.802Z,97777.20
2019-02-09T16:32:47.597Z,97780.05
2019-02-09T16:35:17.601Z,97785.31
2019-02-09T16:37:46.244Z,97784.31
2019-02-09T16:40:16.079Z,97780.78
2019-02-09T16:42:44.949Z,97773.66
2019-02-09T16:45:15.294Z,97779.97
2019-02-09T16:47:43.952Z,97778.59
2019-02-09T16:50:12.885Z,97778.44
2019-02-09T16:52:41.603Z,97786.23
2019-02-09T16:55:11.335Z,97778.13
2019-02-09T16:57:40.226Z,97783.21
2019-02-09T17:00:10.371Z,97791.00
2019-02-09T17:02:39.152Z,97795.81
2019-02-09T17:05:07.973Z,97794.30
2019-02-09T17:07:36.680Z,97787.11
2019-02-09T17:10:05.536Z,97789.97
2019-02-09T17:12:34.254Z,97792.75
2019-02-09T17:15:02.964Z,97789.89
2019-02-09T17:17:31.598Z,97803.09
2019-02-09T17:20:00.248Z,97806.52
2019-02-09T17:22:28.882Z,97804.36
2019-02-09T17:24:57.509Z,97806.39
2019-02-09T17:27:26.150Z,97815.98
2019-02-09T17:29:54.788Z,97818.28
2019-02-09T17:32:23.497Z,97823.20
2019-02-09T17:34:52.141Z,97838.27
2019-02-09T17:37:20.781Z,97828.79
2019-02-09T17:39:49.419Z,97832.64
2019-02-09T17:42:18.077Z,97831.70
2019-02-09T17:44:46.731Z,97838.38
2019-02-09T17:47:15.382Z,97836.05
2019-02-09T17:49:44.025Z,97844.22
2019-02-09T17:52:12.664Z,97836.92
2019-02-09T17:54:41.299Z,97833.66
2019-02-09T17:57:10.327Z,97833.03
2019-02-09T17:59:39.117Z,97833.96
2019-02-09T18:02:07.754Z,97836.97
2019-02-09T18:04:36.455Z,97839.25
2019-02-09T18:07:05.082Z,97835.20
2019-02-09T18:09:33.736Z,97844.09
2019-02-09T18:12:02.383Z,97847.41
2019-02-09T18:14:31.102Z,97847.35
2019-02-09T18:16:59.742Z,97851.58
2019-02-09T18:19:28.386Z,97850.05
2019-02-09T18:21:57.992Z,97860.53
2019-02-09T18:24:26.628Z,97867.22
2019-02-09T18:26:55.270Z,97863.11
2019-02-09T18:29:23.917Z,97865.24
2019-02-09T18:31:52.581Z,97859.06
2019-02-09T18:34:21.236Z,97864.88
2019-02-09T18:36:49.948Z,97866.90
2019-02-09T18:39:18.597Z,97867.19
2019-02-09T18:41:47.259Z,97865.70
2019-02-09T18:44:15.986Z,97866.98
2019-02-09T18:46:45.023Z,97866.91
2019-02-09T18:49:13.687Z,97866.95
2019-02-09T18:51:42.329Z,97861.30
2019-02-09T18:54:10.959Z,97880.21
2019-02-09T18:56:39.603Z,97878.27
2019-02-09T18:59:08.243Z,97884.44
2019-02-09T19:01:36.883Z,97876.45
2019-02-09T19:04:05.617Z,97883.36
2019-02-09T19:06:34.659Z,97879.53
2019-02-09T19:09:04.369Z,97880.45
2019-02-09T19:11:34.654Z,97879.94
2019-02-09T19:14:03.488Z,97888.81
2019-02-09T19:16:32.136Z,97892.80
2019-02-09T19:19:02.532Z,97887.63
2019-02-09T19:21:31.192Z,97891.92
2019-02-09T19:24:01.094Z,97888.22
2019-02-09T19:26:29.750Z,97888.85
2019-02-09T19:28:58.399Z,97884.09
2019-02-09T19:31:27.056Z,97890.16
2019-02-09T19:33:55.724Z,97895.42
2019-02-09T19:36:24.354Z,97887.40
2019-02-09T19:38:53.024Z,97885.38
2019-02-09T19:41:21.671Z,97887.94
2019-02-09T19:43:50.320Z,97882.47
2019-02-09T19:46:19.118Z,97893.11
2019-02-09T19:48:47.771Z,97890.30
2019-02-09T19:51:16.499Z,97888.45
2019-02-09T19:53:45.135Z,97893.89
2019-02-09T19:56:13.801Z,97899.64
2019-02-09T19:58:42.427Z,97890.27
2019-02-09T20:01:11.199Z,97893.91
2019-02-09T20:03:39.995Z,97891.64
2019-02-09T20:06:08.635Z,97888.59
2019-02-09T20:08:37.469Z,97886.59
2019-02-09T20:11:06.462Z,97880.61
2019-02-09T20:13:35.611Z,97882.56
2019-02-09T20:16:04.351Z,97887.59
2019-02-09T20:18:33.056Z,97887.39
2019-02-09T20:21:01.739Z,97893.66
2019-02-09T20:23:30.414Z,97896.92
2019-02-09T20:25:59.084Z,97894.45
2019-02-09T20:28:28.072Z,97886.34
2019-02-09T20:30:57.199Z,97889.03
2019-02-09T20:33:25.864Z,97887.30
2019-02-09T20:35:54.518Z,97878.56
2019-02-09T20:38:23.310Z,97879.19
2019-02-09T20:40:54.096Z,97878.93
2019-02-09T20:43:22.910Z,97881.58
2019-02-09T20:45:51.642Z,97878.67
2019-02-09T20:48:20.311Z,97880.33
2019-02-09T20:50:49.803Z,97876.97
2019-02-09T20:53:18.702Z,97876.22
2019-02-09T20:55:47.347Z,97882.70
2019-02-09T20:58:16.092Z,97886.95
2019-02-09T21:00:44.819Z,97881.70
2019-02-09T21:03:13.861Z,97885.77
2019-02-09T21:05:42.641Z,97882.91
2019-02-09T21:08:11.485Z,97893.40
2019-02-09T21:10:41.531Z,97896.41
2019-02-09T21:13:10.247Z,97899.78
2019-02-09T21:15:39.041Z,97906.75
2019-02-09T21:18:08.963Z,97911.88
2019-02-09T21:20:38.001Z,97906.50
2019-02-09T21:23:06.775Z,97900.36
2019-02-09T21:25:37.484Z,97904.44
2019-02-09T21:28:07.194Z,97910.42
2019-02-09T21:30:35.932Z,97913.50
2019-02-09T21:33:04.838Z,97902.59
2019-02-09T21:35:33.490Z,97900.75
2019-02-09T21:38:02.198Z,97901.97
2019-02-09T21:40:31.172Z,97901.80
2019-02-09T21:43:00.364Z,97902.81
2019-02-09T21:45:30.232Z,97896.78
2019-02-09T21:47:58.935Z,97896.39
2019-02-09T21:50:28.770Z,97891.27
2019-02-09T21:52:58.573Z,97890.42
2019-02-09T21:55:27.199Z,97895.55
2019-02-09T21:57:55.924Z,97892.30
2019-02-09T22:00:35.354Z,97889.31
2019-02-09T22:03:05.166Z,97893.23
2019-02-09T22:05:33.891Z,97906.22
2019-02-09T22:08:02.960Z,97902.63
2019-02-09T22:10:34.018Z,97899.98
2019-02-09T22:13:02.103Z,97906.86
2019-02-09T22:15:38.402Z,97902.36
2019-02-09T22:18:01.908Z,97917.33
2019-02-09T22:20:30.599Z,97921.83
2019-02-09T22:22:59.693Z,97920.27
2019-02-09T22:25:28.403Z,97927.02
2019-02-09T22:27:57.123Z,97922.26
2019-02-09T22:30:26.526Z,97917.92
2019-02-09T22:32:55.344Z,97909.42
2019-02-09T22:35:24.246Z,97912.77
2019-02-09T22:37:53.122Z,97906.92
2019-02-09T22:40:22.951Z,97908.97
2019-02-09T22:42:51.566Z,97920.86
2019-02-09T22:45:20.452Z,97918.69
2019-02-09T22:47:49.848Z,97913.37
2019-02-09T22:50:25.558Z,97916.52
2019-02-09T22:52:54.646Z,97919.27
2019-02-09T22:55:23.670Z,97912.03
2019-02-09T22:57:52.304Z,97914.49
2019-02-09T23:00:33.569Z,97917.95
2019-02-09T23:03:04.160Z,97913.16
2019-02-09T23:05:51.035Z,97908.41
2019-02-09T23:08:19.756Z,97910.52
2019-02-09T23:10:48.467Z,97905.02
2019-02-09T23:13:17.573Z,97895.28
2019-02-09T23:15:46.254Z,97891.05
2019-02-09T23:18:14.889Z,97893.97
2019-02-09T23:20:43.531Z,97884.77
2019-02-09T23:23:12.179Z,97887.39
2019-02-09T23:25:41.111Z,97885.77
2019-02-09T23:28:09.807Z,97880.39
2019-02-09T23:30:38.847Z,97876.94
2019-02-09T23:33:07.479Z,97880.42
2019-02-09T23:35:36.254Z,97881.19
2019-02-09T23:38:04.923Z,97880.65
2019-02-09T23:40:34.762Z,97876.40
2019-02-09T23:43:03.978Z,97876.97
2019-02-09T23:45:32.799Z,97872.38
2019-02-09T23:48:01.442Z,97872.66
2019-02-09T23:50:30.070Z,97873.91
2019-02-09T23:52:58.722Z,97864.51
2019-02-09T23:55:27.410Z,97870.45
2019-02-09T23:57:56.040Z,97867.64
